Terminal Aerodrome Forecast
Issued by NWS Portland, ME

Home | Current Version | Previous Version | Text Only | Print | Product List | Glossary On
Versions: 1 2 3 4 5 6 7 8 9 10 11 12 13 14 15 16
000
FTUS41 KGYX 301121
TAFCON
TAF
KCON 301121Z 3012/3112 VRB03KT P6SM BKN250
      TEMPO 3012/3013 1 1/2SM BR OVC002
     FM301700 19008KT P6SM BKN250
     FM310900 19004KT 3SM BR OVC004=

USA.gov is the U.S. government's official web portal to all federal, state and local government web resources and services.